createdAt,value
2024-03-01T00:04:03.782Z,106.81
2024-03-01T00:19:09.260Z,104.79
2024-03-01T00:34:14.757Z,104.02
2024-03-01T00:49:20.278Z,103.55
2024-03-01T01:04:25.903Z,103.94
2024-03-01T01:19:31.463Z,103.31
2024-03-01T01:34:37.235Z,103.39
2024-03-01T01:49:42.920Z,102.88
2024-03-01T02:04:48.584Z,102.94
2024-03-01T02:19:54.044Z,102.81
2024-03-01T02:34:59.676Z,102.51
2024-03-01T02:50:09.700Z,102.48
2024-03-01T03:05:15.418Z,102.79
2024-03-01T03:20:20.949Z,103.83
2024-03-01T03:35:26.333Z,104.12
2024-03-01T03:50:31.650Z,107.65
2024-03-01T04:05:37.615Z,106.05
2024-03-01T04:20:43.058Z,106.88
2024-03-01T04:35:48.499Z,106.53
2024-03-01T04:50:54.708Z,107.59
2024-03-01T05:06:00.657Z,111.18
2024-03-01T05:21:06.477Z,109.55
2024-03-01T05:36:12.641Z,110.96
2024-03-01T05:51:18.241Z,110.73
2024-03-01T06:06:23.859Z,107.57
2024-03-01T06:21:29.336Z,107.88
2024-03-01T06:36:34.815Z,109.78
2024-03-01T06:51:40.325Z,109.49
2024-03-01T07:06:45.692Z,110.60
2024-03-01T07:21:51.149Z,111.82
2024-03-01T07:36:56.640Z,110.10
2024-03-01T07:52:03.117Z,108.95
2024-03-01T08:07:11.081Z,107.58
2024-03-01T08:22:18.859Z,107.38
2024-03-01T08:37:26.928Z,107.91
2024-03-01T08:52:36.398Z,108.59
2024-03-01T09:07:42.112Z,106.98
2024-03-01T09:22:48.126Z,106.27
2024-03-01T09:37:53.668Z,104.78
2024-03-01T09:53:16.972Z,104.33
2024-03-01T10:08:29.816Z,102.38
2024-03-01T10:23:50.457Z,101.89
2024-03-01T10:39:05.915Z,102.78
2024-03-01T10:54:14.690Z,101.57
2024-03-01T11:09:24.745Z,99.55
2024-03-01T11:24:32.729Z,98.92
2024-03-01T11:39:52.837Z,99.03
2024-03-01T11:55:11.013Z,98.36
2024-03-01T12:10:27.470Z,97.33
2024-03-01T12:25:33.235Z,96.37
2024-03-01T12:40:43.946Z,96.47
2024-03-01T12:56:00.052Z,95.55
2024-03-01T13:11:07.595Z,94.98
2024-03-01T13:26:30.930Z,95.08
2024-03-01T13:41:39.650Z,92.81
2024-03-01T13:56:46.842Z,90.70
2024-03-01T14:11:52.989Z,90.24
2024-03-01T14:26:59.028Z,88.64
2024-03-01T14:42:04.716Z,89.00
2024-03-01T14:57:10.204Z,88.26
2024-03-01T15:12:16.094Z,89.41
2024-03-01T15:27:27.862Z,90.14
2024-03-01T15:42:33.430Z,91.03
2024-03-01T15:57:40.429Z,92.11
2024-03-01T16:12:52.972Z,92.72
2024-03-01T16:27:58.537Z,94.45
2024-03-01T16:43:04.912Z,94.83
2024-03-01T16:58:12.832Z,96.33
2024-03-01T17:13:25.863Z,97.38
2024-03-01T17:28:31.501Z,98.39
2024-03-01T17:43:37.065Z,98.87
2024-03-01T17:58:42.775Z,99.38
2024-03-01T18:13:48.421Z,99.51
2024-03-01T18:28:53.935Z,100.86
2024-03-01T18:43:59.714Z,101.27
2024-03-01T18:59:05.947Z,101.77
2024-03-01T19:14:11.794Z,101.97
2024-03-01T19:29:18.707Z,101.96
2024-03-01T19:44:29.459Z,102.41
2024-03-01T19:59:36.584Z,103.12
2024-03-01T20:14:42.073Z,102.91
2024-03-01T20:29:47.495Z,103.46
2024-03-01T20:44:53.287Z,102.96
2024-03-01T20:59:59.609Z,103.86
2024-03-01T21:15:10.059Z,104.12
2024-03-01T21:30:15.683Z,104.18
2024-03-01T21:45:21.172Z,104.54
2024-03-01T22:00:26.632Z,104.87
2024-03-01T22:15:32.123Z,105.58
2024-03-01T22:30:37.814Z,105.83
2024-03-01T22:45:43.898Z,106.06
2024-03-01T23:00:50.925Z,106.53
2024-03-01T23:15:56.803Z,105.98
2024-03-01T23:31:04.106Z,106.17
2024-03-01T23:46:09.581Z,105.31
